sensor_id;sensor_type;location;lat;lon;timestamp;pressure;altitude;pressure_sealevel;temperature;humidity
60433;BME280;46286;48.098;11.590;2022-11-11T00:01:59;96919.44;;;1.22;100.00
60433;BME280;46286;48.098;11.590;2022-11-11T00:04:24;96920.34;;;1.14;100.00
60433;BME280;46286;48.098;11.590;2022-11-11T00:06:50;96915.78;;;1.16;100.00
60433;BME280;46286;48.098;11.590;2022-11-11T00:09:18;96907.38;;;1.14;100.00
60433;BME280;46286;48.098;11.590;2022-11-11T00:11:43;96905.75;;;1.13;100.00
60433;BME280;46286;48.098;11.590;2022-11-11T00:14:08;96909.66;;;1.09;100.00
60433;BME280;46286;48.098;11.590;2022-11-11T00:16:34;96907.06;;;1.09;100.00
60433;BME280;46286;48.098;11.590;2022-11-11T00:19:26;96902.91;;;1.08;100.00
60433;BME280;46286;48.098;11.590;2022-11-11T00:22:19;96903.75;;;1.24;100.00
60433;BME280;46286;48.098;11.590;2022-11-11T00:25:03;96900.00;;;1.03;100.00
60433;BME280;46286;48.098;11.590;2022-11-11T00:27:32;96909.41;;;1.04;100.00
60433;BME280;46286;48.098;11.590;2022-11-11T00:29:58;96903.91;;;0.99;100.00
60433;BME280;46286;48.098;11.590;2022-11-11T00:32:23;96909.19;;;0.91;100.00
60433;BME280;46286;48.098;11.590;2022-11-11T00:34:56;96912.09;;;0.88;100.00
60433;BME280;46286;48.098;11.590;2022-11-11T00:37:42;96907.66;;;0.73;100.00
60433;BME280;46286;48.098;11.590;2022-11-11T00:40:09;96907.97;;;0.78;100.00
60433;BME280;46286;48.098;11.590;2022-11-11T00:42:35;96896.63;;;0.79;100.00
60433;BME280;46286;48.098;11.590;2022-11-11T00:45:00;96899.56;;;0.76;100.00
60433;BME280;46286;48.098;11.590;2022-11-11T00:47:26;96907.19;;;0.78;100.00
60433;BME280;46286;48.098;11.590;2022-11-11T00:50:13;96896.81;;;0.78;100.00
60433;BME280;46286;48.098;11.590;2022-11-11T00:52:57;96896.50;;;0.73;100.00
60433;BME280;46286;48.098;11.590;2022-11-11T00:55:23;96890.06;;;0.68;100.00
60433;BME280;46286;48.098;11.590;2022-11-11T00:57:48;96897.38;;;0.65;100.00
60433;BME280;46286;48.098;11.590;2022-11-11T01:00:14;96895.75;;;0.64;100.00
60433;BME280;46286;48.098;11.590;2022-11-11T01:02:40;96890.94;;;0.61;100.00
60433;BME280;46286;48.098;11.590;2022-11-11T01:05:05;96890.78;;;0.54;100.00
60433;BME280;46286;48.098;11.590;2022-11-11T01:07:31;96878.72;;;0.46;100.00
60433;BME280;46286;48.098;11.590;2022-11-11T01:09:56;96880.19;;;0.41;100.00
60433;BME280;46286;48.098;11.590;2022-11-11T01:12:22;96880.66;;;0.44;100.00
60433;BME280;46286;48.098;11.590;2022-11-11T01:14:48;96875.47;;;0.44;100.00
60433;BME280;46286;48.098;11.590;2022-11-11T01:17:13;96877.09;;;0.45;100.00
60433;BME280;46286;48.098;11.590;2022-11-11T01:19:39;96879.84;;;0.44;100.00
60433;BME280;46286;48.098;11.590;2022-11-11T01:22:04;96875.81;;;0.41;100.00
60433;BME280;46286;48.098;11.590;2022-11-11T01:24:30;96882.78;;;0.41;100.00
60433;BME280;46286;48.098;11.590;2022-11-11T01:26:55;96894.97;;;0.32;100.00
60433;BME280;46286;48.098;11.590;2022-11-11T01:29:21;96893.97;;;0.33;100.00
60433;BME280;46286;48.098;11.590;2022-11-11T01:31:46;96898.38;;;0.32;100.00
60433;BME280;46286;48.098;11.590;2022-11-11T01:34:12;96876.56;;;0.19;100.00
60433;BME280;46286;48.098;11.590;2022-11-11T01:36:37;96879.50;;;0.15;100.00
60433;BME280;46286;48.098;11.590;2022-11-11T01:39:03;96879.34;;;0.17;100.00
60433;BME280;46286;48.098;11.590;2022-11-11T01:41:33;96878.22;;;0.11;100.00
60433;BME280;46286;48.098;11.590;2022-11-11T01:44:01;96884.06;;;0.13;100.00
60433;BME280;46286;48.098;11.590;2022-11-11T01:46:33;96888.22;;;0.23;100.00
60433;BME280;46286;48.098;11.590;2022-11-11T01:49:16;96885.34;;;0.17;100.00
60433;BME280;46286;48.098;11.590;2022-11-11T01:52:02;96885.19;;;0.11;100.00
60433;BME280;46286;48.098;11.590;2022-11-11T01:59:47;96889.94;;;0.07;100.00
60433;BME280;46286;48.098;11.590;2022-11-11T02:02:19;96883.75;;;0.08;100.00
60433;BME280;46286;48.098;11.590;2022-11-11T02:04:47;96890.25;;;0.04;100.00
60433;BME280;46286;48.098;11.590;2022-11-11T02:07:33;96890.59;;;0.01;100.00
60433;BME280;46286;48.098;11.590;2022-11-11T02:10:00;96888.34;;;-0.02;100.00
60433;BME280;46286;48.098;11.590;2022-11-11T02:12:27;96887.22;;;-0.08;100.00
60433;BME280;46286;48.098;11.590;2022-11-11T02:15:11;96883.53;;;-0.13;100.00
60433;BME280;46286;48.098;11.590;2022-11-11T02:17:37;96883.19;;;-0.10;100.00
60433;BME280;46286;48.098;11.590;2022-11-11T02:20:04;96879.97;;;-0.12;100.00
60433;BME280;46286;48.098;11.590;2022-11-11T02:22:54;96888.00;;;-0.07;100.00
60433;BME280;46286;48.098;11.590;2022-11-11T02:25:24;96889.97;;;-0.09;100.00
60433;BME280;46286;48.098;11.590;2022-11-11T02:27:53;96885.81;;;-0.19;100.00
60433;BME280;46286;48.098;11.590;2022-11-11T02:30:21;96892.31;;;-0.31;100.00
60433;BME280;46286;48.098;11.590;2022-11-11T02:32:49;96888.75;;;-0.30;100.00
60433;BME280;46286;48.098;11.590;2022-11-11T02:35:29;96890.34;;;-0.29;100.00
60433;BME280;46286;48.098;11.590;2022-11-11T02:37:56;96889.09;;;-0.33;100.00
60433;BME280;46286;48.098;11.590;2022-11-11T02:40:32;96880.84;;;-0.37;100.00
60433;BME280;46286;48.098;11.590;2022-11-11T02:42:59;96882.97;;;-0.40;100.00
60433;BME280;46286;48.098;11.590;2022-11-11T02:45:25;96891.34;;;-0.30;100.00
60433;BME280;46286;48.098;11.590;2022-11-11T02:47:50;96892.47;;;-0.24;100.00
60433;BME280;46286;48.098;11.590;2022-11-11T02:50:16;96906.22;;;-0.32;100.00
60433;BME280;46286;48.098;11.590;2022-11-11T02:52:41;96897.81;;;-0.34;100.00
60433;BME280;46286;48.098;11.590;2022-11-11T02:55:07;96900.41;;;-0.42;100.00
60433;BME280;46286;48.098;11.590;2022-11-11T02:57:33;96900.13;;;-0.47;100.00
60433;BME280;46286;48.098;11.590;2022-11-11T02:59:59;96908.50;;;-0.37;100.00
60433;BME280;46286;48.098;11.590;2022-11-11T03:02:26;96910.09;;;-0.36;100.00
60433;BME280;46286;48.098;11.590;2022-11-11T03:04:56;96915.94;;;-0.42;100.00
60433;BME280;46286;48.098;11.590;2022-11-11T03:07:22;96921.44;;;-0.45;100.00
60433;BME280;46286;48.098;11.590;2022-11-11T03:09:48;96924.69;;;-0.51;100.00
60433;BME280;46286;48.098;11.590;2022-11-11T03:12:14;96933.41;;;-0.44;100.00
60433;BME280;46286;48.098;11.590;2022-11-11T03:14:40;96935.34;;;-0.46;100.00
60433;BME280;46286;48.098;11.590;2022-11-11T03:17:06;96941.19;;;-0.44;100.00
60433;BME280;46286;48.098;11.590;2022-11-11T03:19:50;96944.09;;;-0.47;100.00
60433;BME280;46286;48.098;11.590;2022-11-11T03:22:16;96958.94;;;-0.49;100.00
60433;BME280;46286;48.098;11.590;2022-11-11T03:24:41;96964.47;;;-0.53;100.00
60433;BME280;46286;48.098;11.590;2022-11-11T03:27:25;96975.13;;;-0.47;100.00
60433;BME280;46286;48.098;11.590;2022-11-11T03:29:50;96969.97;;;-0.47;100.00
60433;BME280;46286;48.098;11.590;2022-11-11T03:32:16;96969.78;;;-0.54;100.00
60433;BME280;46286;48.098;11.590;2022-11-11T03:34:42;96976.09;;;-0.57;100.00
60433;BME280;46286;48.098;11.590;2022-11-11T03:37:09;96970.75;;;-0.63;100.00
60433;BME280;46286;48.098;11.590;2022-11-11T03:39:53;96981.91;;;-0.63;100.00
60433;BME280;46286;48.098;11.590;2022-11-11T03:42:19;96977.06;;;-0.66;100.00
60433;BME280;46286;48.098;11.590;2022-11-11T03:44:45;96972.22;;;-0.69;100.00
60433;BME280;46286;48.098;11.590;2022-11-11T03:47:10;96967.38;;;-0.64;100.00
60433;BME280;46286;48.098;11.590;2022-11-11T03:49:36;96969.47;;;-0.51;100.00
60433;BME280;46286;48.098;11.590;2022-11-11T03:52:01;96960.91;;;-0.68;100.00
60433;BME280;46286;48.098;11.590;2022-11-11T03:54:27;96960.28;;;-0.70;100.00
60433;BME280;46286;48.098;11.590;2022-11-11T03:56:52;96964.78;;;-0.72;100.00
60433;BME280;46286;48.098;11.590;2022-11-11T03:59:38;96968.03;;;-0.70;100.00
60433;BME280;46286;48.098;11.590;2022-11-11T04:02:03;96972.22;;;-0.69;100.00
60433;BME280;46286;48.098;11.590;2022-11-11T04:04:47;96976.25;;;-0.66;100.00
60433;BME280;46286;48.098;11.590;2022-11-11T04:07:31;96963.81;;;-0.71;100.00
60433;BME280;46286;48.098;11.590;2022-11-11T04:10:15;96962.53;;;-0.67;100.00
60433;BME280;46286;48.098;11.590;2022-11-11T04:12:47;96956.69;;;-0.69;100.00
60433;BME280;46286;48.098;11.590;2022-11-11T04:15:31;96965.56;;;-0.63;100.00
60433;BME280;46286;48.098;11.590;2022-11-11T04:18:15;96961.06;;;-0.70;100.00
60433;BME280;46286;48.098;11.590;2022-11-11T04:20:42;96957.03;;;-0.72;100.00
60433;BME280;46286;48.098;11.590;2022-11-11T04:23:26;96940.38;;;-0.70;100.00
60433;BME280;46286;48.098;11.590;2022-11-11T04:25:51;96935.88;;;-0.67;100.00
60433;BME280;46286;48.098;11.590;2022-11-11T04:28:19;96937.97;;;-0.63;100.00
60433;BME280;46286;48.098;11.590;2022-11-11T04:31:03;96950.72;;;-0.53;100.00
60433;BME280;46286;48.098;11.590;2022-11-11T04:33:29;96936.81;;;-0.52;100.00
60433;BME280;46286;48.098;11.590;2022-11-11T04:35:55;96941.00;;;-0.43;100.00
60433;BME280;46286;48.098;11.590;2022-11-11T04:38:20;96934.72;;;-0.40;100.00
60433;BME280;46286;48.098;11.590;2022-11-11T04:41:04;96934.22;;;-0.36;100.00
60433;BME280;46286;48.098;11.590;2022-11-11T04:43:31;96931.75;;;-0.29;100.00
60433;BME280;46286;48.098;11.590;2022-11-11T04:45:58;96923.69;;;-0.26;100.00
60433;BME280;46286;48.098;11.590;2022-11-11T04:48:23;96927.22;;;-0.27;100.00
60433;BME280;46286;48.098;11.590;2022-11-11T04:50:49;96928.88;;;-0.34;100.00
60433;BME280;46286;48.098;11.590;2022-11-11T04:53:14;96931.47;;;-0.42;100.00
60433;BME280;46286;48.098;11.590;2022-11-11T04:55:42;96937.94;;;-0.38;100.00
60433;BME280;46286;48.098;11.590;2022-11-11T04:58:32;96937.28;;;-0.40;100.00
60433;BME280;46286;48.098;11.590;2022-11-11T05:00:58;96932.94;;;-0.48;100.00
60433;BME280;46286;48.098;11.590;2022-11-11T05:03:24;96937.13;;;-0.47;100.00
60433;BME280;46286;48.098;11.590;2022-11-11T05:05:51;96940.19;;;-0.43;100.00
60433;BME280;46286;48.098;11.590;2022-11-11T05:08:38;96947.31;;;-0.45;100.00
60433;BME280;46286;48.098;11.590;2022-11-11T05:11:26;96945.72;;;-0.63;100.00
60433;BME280;46286;48.098;11.590;2022-11-11T05:13:54;96946.03;;;-0.58;100.00
60433;BME280;46286;48.098;11.590;2022-11-11T05:16:42;96943.75;;;-0.61;100.00
60433;BME280;46286;48.098;11.590;2022-11-11T05:19:26;96958.16;;;-0.58;100.00
60433;BME280;46286;48.098;11.590;2022-11-11T05:24:49;96958.94;;;-0.58;100.00
60433;BME280;46286;48.098;11.590;2022-11-11T05:27:34;96954.44;;;-0.64;100.00
60433;BME280;46286;48.098;11.590;2022-11-11T05:29:59;96954.78;;;-0.67;100.00
60433;BME280;46286;48.098;11.590;2022-11-11T05:32:25;96961.56;;;-0.66;100.00
60433;BME280;46286;48.098;11.590;2022-11-11T05:34:51;96966.72;;;-0.66;100.00
60433;BME280;46286;48.098;11.590;2022-11-11T05:37:17;96964.16;;;-0.66;100.00
60433;BME280;46286;48.098;11.590;2022-11-11T05:39:43;96968.97;;;-0.71;100.00
60433;BME280;46286;48.098;11.590;2022-11-11T05:42:09;96967.69;;;-0.75;100.00
60433;BME280;46286;48.098;11.590;2022-11-11T05:44:35;96974.47;;;-0.74;100.00
60433;BME280;46286;48.098;11.590;2022-11-11T05:47:01;96968.50;;;-0.75;100.00
60433;BME280;46286;48.098;11.590;2022-11-11T05:49:27;96967.69;;;-0.75;100.00
60433;BME280;46286;48.098;11.590;2022-11-11T05:51:53;96975.13;;;-0.72;100.00
60433;BME280;46286;48.098;11.590;2022-11-11T05:54:20;96983.03;;;-0.65;100.00
60433;BME280;46286;48.098;11.590;2022-11-11T05:56:45;96991.44;;;-0.63;100.00
60433;BME280;46286;48.098;11.590;2022-11-11T05:59:11;97002.94;;;-0.66;100.00
60433;BME280;46286;48.098;11.590;2022-11-11T06:01:37;96999.53;;;-0.58;100.00
60433;BME280;46286;48.098;11.590;2022-11-11T06:04:03;96999.34;;;-0.65;100.00
60433;BME280;46286;48.098;11.590;2022-11-11T06:06:29;97009.38;;;-0.62;100.00
60433;BME280;46286;48.098;11.590;2022-11-11T06:08:55;97008.41;;;-0.69;100.00
60433;BME280;46286;48.098;11.590;2022-11-11T06:11:21;97003.56;;;-0.64;100.00
60433;BME280;46286;48.098;11.590;2022-11-11T06:13:47;97007.59;;;-0.70;100.00
60433;BME280;46286;48.098;11.590;2022-11-11T06:16:13;97008.41;;;-0.69;100.00
60433;BME280;46286;48.098;11.590;2022-11-11T06:18:38;97011.00;;;-0.61;100.00
60433;BME280;46286;48.098;11.590;2022-11-11T06:21:04;97022.00;;;-0.59;100.00
60433;BME280;46286;48.098;11.590;2022-11-11T06:23:29;97020.72;;;-0.55;100.00
60433;BME280;46286;48.098;11.590;2022-11-11T06:25:55;97024.25;;;-0.56;100.00
60433;BME280;46286;48.098;11.590;2022-11-11T06:28:53;97026.03;;;-0.64;100.00
60433;BME280;46286;48.098;11.590;2022-11-11T06:31:22;97024.91;;;-0.70;100.00
60433;BME280;46286;48.098;11.590;2022-11-11T06:33:48;97024.88;;;-0.62;100.00
60433;BME280;46286;48.098;11.590;2022-11-11T06:36:15;97025.56;;;-0.51;100.00
60433;BME280;46286;48.098;11.590;2022-11-11T06:38:41;97029.28;;;-0.46;100.00
60433;BME280;46286;48.098;11.590;2022-11-11T06:41:08;97034.91;;;-0.42;100.00
60433;BME280;46286;48.098;11.590;2022-11-11T06:43:34;97051.09;;;-0.32;100.00
60433;BME280;46286;48.098;11.590;2022-11-11T06:46:00;97054.66;;;-0.33;100.00
60433;BME280;46286;48.098;11.590;2022-11-11T06:48:27;97051.41;;;-0.35;100.00
60433;BME280;46286;48.098;11.590;2022-11-11T06:50:54;97054.16;;;-0.28;100.00
60433;BME280;46286;48.098;11.590;2022-11-11T06:53:24;97064.03;;;-0.24;100.00
60433;BME280;46286;48.098;11.590;2022-11-11T06:55:51;97064.34;;;-0.27;100.00
60433;BME280;46286;48.098;11.590;2022-11-11T06:58:18;97059.97;;;-0.18;100.00
60433;BME280;46286;48.098;11.590;2022-11-11T07:00:46;97058.19;;;-0.18;100.00
60433;BME280;46286;48.098;11.590;2022-11-11T07:03:16;97066.75;;;-0.09;100.00
60433;BME280;46286;48.098;11.590;2022-11-11T07:05:43;97069.84;;;0.03;100.00
60433;BME280;46286;48.098;11.590;2022-11-11T07:08:12;97078.53;;;0.19;100.00
60433;BME280;46286;48.098;11.590;2022-11-11T07:10:40;97077.56;;;0.20;100.00
60433;BME280;46286;48.098;11.590;2022-11-11T07:13:07;97079.34;;;0.19;100.00
60433;BME280;46286;48.098;11.590;2022-11-11T07:15:34;97091.47;;;0.27;100.00
60433;BME280;46286;48.098;11.590;2022-11-11T07:18:00;97099.56;;;0.32;100.00
60433;BME280;46286;48.098;11.590;2022-11-11T07:20:26;97101.81;;;0.43;100.00
60433;BME280;46286;48.098;11.590;2022-11-11T07:22:51;97096.91;;;0.48;100.00
60433;BME280;46286;48.098;11.590;2022-11-11T07:25:17;97106.91;;;0.68;100.00
60433;BME280;46286;48.098;11.590;2022-11-11T07:27:43;97105.94;;;0.69;100.00
60433;BME280;46286;48.098;11.590;2022-11-11T07:30:09;97112.06;;;0.76;100.00
60433;BME280;46286;48.098;11.590;2022-11-11T07:32:36;97111.06;;;0.85;100.00
60433;BME280;46286;48.098;11.590;2022-11-11T07:35:02;97111.38;;;0.91;100.00
60433;BME280;46286;48.098;11.590;2022-11-11T07:37:29;97098.34;;;0.99;100.00
60433;BME280;46286;48.098;11.590;2022-11-11T07:39:55;97105.72;;;1.18;100.00
60433;BME280;46286;48.098;11.590;2022-11-11T07:42:20;97110.81;;;1.35;100.00
60433;BME280;46286;48.098;11.590;2022-11-11T07:44:45;97109.44;;;1.47;100.00
60433;BME280;46286;48.098;11.590;2022-11-11T07:47:11;97116.66;;;1.60;100.00
60433;BME280;46286;48.098;11.590;2022-11-11T07:49:36;97110.91;;;1.73;100.00
60433;BME280;46286;48.098;11.590;2022-11-11T07:52:02;97110.50;;;1.84;100.00
60433;BME280;46286;48.098;11.590;2022-11-11T07:54:28;97116.38;;;2.01;100.00
60433;BME280;46286;48.098;11.590;2022-11-11T07:56:53;97112.81;;;2.17;100.00
60433;BME280;46286;48.098;11.590;2022-11-11T07:59:19;97115.53;;;2.39;100.00
60433;BME280;46286;48.098;11.590;2022-11-11T08:01:44;97118.97;;;2.54;100.00
60433;BME280;46286;48.098;11.590;2022-11-11T08:04:10;97111.34;;;2.68;100.00
60433;BME280;46286;48.098;11.590;2022-11-11T08:06:36;97116.69;;;2.81;100.00
60433;BME280;46286;48.098;11.590;2022-11-11T08:09:02;97113.81;;;3.06;100.00
60433;BME280;46286;48.098;11.590;2022-11-11T08:11:27;97115.44;;;3.07;100.00
60433;BME280;46286;48.098;11.590;2022-11-11T08:14:11;97121.66;;;3.27;100.00
60433;BME280;46286;48.098;11.590;2022-11-11T08:16:37;97120.31;;;3.32;100.00
60433;BME280;46286;48.098;11.590;2022-11-11T08:19:02;97112.13;;;3.35;100.00
60433;BME280;46286;48.098;11.590;2022-11-11T08:21:28;97113.66;;;3.44;100.00
60433;BME280;46286;48.098;11.590;2022-11-11T08:23:53;97115.00;;;3.40;100.00
60433;BME280;46286;48.098;11.590;2022-11-11T08:26:20;97118.88;;;3.66;100.00
60433;BME280;46286;48.098;11.590;2022-11-11T08:28:46;97109.31;;;3.73;100.00
60433;BME280;46286;48.098;11.590;2022-11-11T08:31:12;97096.00;;;3.83;100.00
60433;BME280;46286;48.098;11.590;2022-11-11T08:33:38;97098.53;;;3.97;100.00
60433;BME280;46286;48.098;11.590;2022-11-11T08:36:04;97091.84;;;3.88;100.00
60433;BME280;46286;48.098;11.590;2022-11-11T08:38:30;97091.69;;;3.75;100.00
60433;BME280;46286;48.098;11.590;2022-11-11T08:41:00;97095.44;;;3.87;100.00
60433;BME280;46286;48.098;11.590;2022-11-11T08:43:26;97083.94;;;4.03;100.00
60433;BME280;46286;48.098;11.590;2022-11-11T08:45:52;97078.31;;;3.99;100.00
60433;BME280;46286;48.098;11.590;2022-11-11T08:48:18;97076.56;;;4.07;100.00
60433;BME280;46286;48.098;11.590;2022-11-11T08:50:43;97074.81;;;4.14;100.00
60433;BME280;46286;48.098;11.590;2022-11-11T08:53:10;97071.19;;;4.15;100.00
60433;BME280;46286;48.098;11.590;2022-11-11T08:55:36;97071.31;;;4.28;100.00
60433;BME280;46286;48.098;11.590;2022-11-11T08:58:05;97070.22;;;4.51;100.00
60433;BME280;46286;48.098;11.590;2022-11-11T09:00:32;97069.06;;;4.60;100.00
60433;BME280;46286;48.098;11.590;2022-11-11T09:03:02;97069.63;;;4.91;100.00
60433;BME280;46286;48.098;11.590;2022-11-11T09:05:28;97056.38;;;4.92;100.00
60433;BME280;46286;48.098;11.590;2022-11-11T09:07:54;97068.69;;;5.12;100.00
60433;BME280;46286;48.098;11.590;2022-11-11T09:10:20;97055.28;;;5.28;100.00
60433;BME280;46286;48.098;11.590;2022-11-11T09:12:45;97057.94;;;5.55;100.00
60433;BME280;46286;48.098;11.590;2022-11-11T09:15:11;97061.78;;;5.72;100.00
60433;BME280;46286;48.098;11.590;2022-11-11T09:17:36;97067.00;;;5.86;100.00
60433;BME280;46286;48.098;11.590;2022-11-11T09:20:03;97065.84;;;6.09;100.00
60433;BME280;46286;48.098;11.590;2022-11-11T09:22:28;97065.81;;;6.35;100.00
60433;BME280;46286;48.098;11.590;2022-11-11T09:24:54;97068.59;;;6.40;100.00
60433;BME280;46286;48.098;11.590;2022-11-11T09:27:20;97066.16;;;6.59;100.00
60433;BME280;46286;48.098;11.590;2022-11-11T09:29:46;97066.47;;;6.89;100.00
60433;BME280;46286;48.098;11.590;2022-11-11T09:32:11;97071.22;;;7.13;100.00
60433;BME280;46286;48.098;11.590;2022-11-11T09:34:37;97060.00;;;7.69;100.00
60433;BME280;46286;48.098;11.590;2022-11-11T09:37:02;97065.97;;;7.83;100.00
60433;BME280;46286;48.098;11.590;2022-11-11T09:39:28;97074.09;;;8.25;100.00
60433;BME280;46286;48.098;11.590;2022-11-11T09:52:35;97061.31;;;9.82;100.00
60433;BME280;46286;48.098;11.590;2022-11-11T09:55:05;97068.69;;;10.51;100.00
60433;BME280;46286;48.098;11.590;2022-11-11T09:57:39;97063.75;;;9.96;100.00
60433;BME280;46286;48.098;11.590;2022-11-11T10:00:20;97064.88;;;9.88;100.00
60433;BME280;46286;48.098;11.590;2022-11-11T10:02:52;97062.91;;;9.83;100.00
60433;BME280;46286;48.098;11.590;2022-11-11T10:05:20;97066.81;;;9.93;100.00
60433;BME280;46286;48.098;11.590;2022-11-11T10:07:56;97064.97;;;9.81;100.00
60433;BME280;46286;48.098;11.590;2022-11-11T10:10:38;97065.50;;;10.49;100.00
60433;BME280;46286;48.098;11.590;2022-11-11T10:13:13;97071.19;;;10.70;100.00
60433;BME280;46286;48.098;11.590;2022-11-11T10:19:33;97073.88;;;10.99;100.00
60433;BME280;46286;48.098;11.590;2022-11-11T10:21:42;97070.22;;;11.57;100.00
60433;BME280;46286;48.098;11.590;2022-11-11T10:24:27;97061.78;;;11.89;100.00
60433;BME280;46286;48.098;11.590;2022-11-11T10:26:53;97054.03;;;12.73;100.00
60433;BME280;46286;48.098;11.590;2022-11-11T10:29:19;97043.97;;;13.14;100.00
60433;BME280;46286;48.098;11.590;2022-11-11T10:32:07;97052.50;;;13.71;100.00
60433;BME280;46286;48.098;11.590;2022-11-11T10:34:35;97049.88;;;13.76;100.00
60433;BME280;46286;48.098;11.590;2022-11-11T10:37:02;97043.94;;;14.33;100.00
60433;BME280;46286;48.098;11.590;2022-11-11T10:42:21;97050.28;;;13.13;100.00
60433;BME280;46286;48.098;11.590;2022-11-11T10:44:46;97052.56;;;13.26;100.00
60433;BME280;46286;48.098;11.590;2022-11-11T10:50:15;97045.75;;;13.90;100.00
60433;BME280;46286;48.098;11.590;2022-11-11T10:52:49;97045.66;;;15.03;99.89
60433;BME280;46286;48.098;11.590;2022-11-11T10:55:28;97044.84;;;14.97;100.00
60433;BME280;46286;48.098;11.590;2022-11-11T10:58:06;97038.03;;;15.22;89.74
60433;BME280;46286;48.098;11.590;2022-11-11T11:00:36;97037.66;;;14.40;89.82
60433;BME280;46286;48.098;11.590;2022-11-11T11:03:14;97043.72;;;14.40;90.55
60433;BME280;46286;48.098;11.590;2022-11-11T11:05:51;97051.31;;;15.27;100.00
60433;BME280;46286;48.098;11.590;2022-11-11T11:08:20;97054.53;;;15.60;94.38
60433;BME280;46286;48.098;11.590;2022-11-11T11:10:51;97062.81;;;15.89;94.01
60433;BME280;46286;48.098;11.590;2022-11-11T11:13:33;97050.22;;;16.67;77.08
60433;BME280;46286;48.098;11.590;2022-11-11T11:16:05;97057.22;;;16.27;75.08
60433;BME280;46286;48.098;11.590;2022-11-11T11:18:33;97055.63;;;17.67;73.94
60433;BME280;46286;48.098;11.590;2022-11-11T11:21:00;97055.66;;;15.95;82.76
60433;BME280;46286;48.098;11.590;2022-11-11T11:23:35;97056.72;;;15.89;78.29
60433;BME280;46286;48.098;11.590;2022-11-11T11:26:02;97052.19;;;16.20;74.48
60433;BME280;46286;48.098;11.590;2022-11-11T11:28:29;97053.47;;;16.49;77.40
60433;BME280;46286;48.098;11.590;2022-11-11T11:31:05;97048.50;;;17.97;72.57
60433;BME280;46286;48.098;11.590;2022-11-11T11:33:54;97043.03;;;18.12;64.52
60433;BME280;46286;48.098;11.590;2022-11-11T11:36:20;97044.16;;;18.35;57.90
60433;BME280;46286;48.098;11.590;2022-11-11T11:38:48;97040.16;;;18.38;59.24
60433;BME280;46286;48.098;11.590;2022-11-11T11:41:17;97041.50;;;17.27;62.92
60433;BME280;46286;48.098;11.590;2022-11-11T11:44:00;97037.41;;;16.85;60.47
60433;BME280;46286;48.098;11.590;2022-11-11T11:46:39;97036.81;;;17.93;63.75
60433;BME280;46286;48.098;11.590;2022-11-11T11:52:17;97017.09;;;17.14;63.97
60433;BME280;46286;48.098;11.590;2022-11-11T11:54:59;97031.06;;;16.75;70.91
60433;BME280;46286;48.098;11.590;2022-11-11T11:57:38;97018.81;;;16.90;70.21
60433;BME280;46286;48.098;11.590;2022-11-11T12:00:19;97009.44;;;16.17;66.67
60433;BME280;46286;48.098;11.590;2022-11-11T12:03:25;97025.09;;;15.72;76.30
60433;BME280;46286;48.098;11.590;2022-11-11T12:06:04;97015.41;;;15.04;68.12
60433;BME280;46286;48.098;11.590;2022-11-11T12:14:58;97011.53;;;15.42;84.06
60433;BME280;46286;48.098;11.590;2022-11-11T12:17:25;97020.31;;;16.20;73.14
60433;BME280;46286;48.098;11.590;2022-11-11T12:25:36;97030.16;;;15.99;73.98
60433;BME280;46286;48.098;11.590;2022-11-11T12:31:26;97010.28;;;14.29;83.34
60433;BME280;46286;48.098;11.590;2022-11-11T12:42:23;97005.59;;;13.98;90.66
60433;BME280;46286;48.098;11.590;2022-11-11T12:58:54;97010.88;;;13.33;98.28
60433;BME280;46286;48.098;11.590;2022-11-11T13:05:09;97007.00;;;12.70;100.00
60433;BME280;46286;48.098;11.590;2022-11-11T13:16:03;97007.91;;;12.58;100.00
60433;BME280;46286;48.098;11.590;2022-11-11T13:21:06;97011.81;;;12.34;100.00
60433;BME280;46286;48.098;11.590;2022-11-11T13:23:34;97013.06;;;12.09;100.00
60433;BME280;46286;48.098;11.590;2022-11-11T13:26:03;97014.81;;;12.03;100.00
60433;BME280;46286;48.098;11.590;2022-11-11T13:28:43;97020.06;;;11.52;100.00
60433;BME280;46286;48.098;11.590;2022-11-11T13:33:47;97016.13;;;11.38;100.00
60433;BME280;46286;48.098;11.590;2022-11-11T13:36:16;97015.97;;;11.44;100.00
60433;BME280;46286;48.098;11.590;2022-11-11T13:38:46;97004.03;;;11.25;100.00
60433;BME280;46286;48.098;11.590;2022-11-11T13:41:20;97015.28;;;10.91;100.00
60433;BME280;46286;48.098;11.590;2022-11-11T13:43:49;97011.88;;;10.79;100.00
60433;BME280;46286;48.098;11.590;2022-11-11T13:46:40;97012.56;;;10.86;100.00
60433;BME280;46286;48.098;11.590;2022-11-11T13:49:22;97011.06;;;10.79;100.00
60433;BME280;46286;48.098;11.590;2022-11-11T13:52:01;97009.88;;;10.46;100.00
60433;BME280;46286;48.098;11.590;2022-11-11T13:54:30;97011.50;;;10.35;100.00
60433;BME280;46286;48.098;11.590;2022-11-11T13:59:37;97023.72;;;10.29;100.00
60433;BME280;46286;48.098;11.590;2022-11-11T14:02:32;97020.19;;;10.23;100.00
60433;BME280;46286;48.098;11.590;2022-11-11T14:12:53;97038.47;;;10.18;100.00
60433;BME280;46286;48.098;11.590;2022-11-11T14:15:43;97045.47;;;10.25;100.00
60433;BME280;46286;48.098;11.590;2022-11-11T14:18:32;97051.19;;;10.21;100.00
60433;BME280;46286;48.098;11.590;2022-11-11T14:20:59;97035.28;;;10.16;100.00
60433;BME280;46286;48.098;11.590;2022-11-11T14:23:39;97042.84;;;10.25;100.00
60433;BME280;46286;48.098;11.590;2022-11-11T14:26:14;97051.06;;;10.16;100.00
60433;BME280;46286;48.098;11.590;2022-11-11T14:36:22;97031.84;;;10.04;100.00
60433;BME280;46286;48.098;11.590;2022-11-11T14:41:49;97031.81;;;9.80;100.00
60433;BME280;46286;48.098;11.590;2022-11-11T14:54:50;97026.72;;;9.43;100.00
60433;BME280;46286;48.098;11.590;2022-11-11T14:57:21;97030.34;;;9.42;100.00
60433;BME280;46286;48.098;11.590;2022-11-11T14:59:49;97028.94;;;9.28;100.00